PIA785 OPIS-EGLL
Flight info
| Callsign | PIA785 |
|---|---|
| Flight time | N/A |
| Altitude | 32000 |
| Route | KALMI J139 HANGU G796 LAJAK L509 TAPIS M875 AMDAR/K0906F320 T186 LAPZE Z407 ODIVA M161 DENUD T784 TIRET T759 GEKPA L736 ASKIL L979 GRD L32 SOTET/N0481F320 L32 SUWGI L29 GRUDA L23 WSN N125 SILQI N872 PAM L980 LOGAN |
| Aircraft | B772/H-SDE2E3FGHIJ5LORVWXY/LB1D1 |
Departure
| Time | 2026-04-28 15:44 |
|---|---|
| Airport | Islamabad International Airport (OPIS) |
Arrival
| Time | N/A |
|---|---|
| Airport | London Heathrow Airport (EGLL) |
| Time | Latitude | Longitude | Altitude | Speed | Heading |
|---|---|---|---|---|---|
| 2026-04-28 14:52 | 33.55367 | 72.83118 | 1774 ft | 0 kts | 326° |
| 2026-04-28 15:26 | 33.55358 | 72.83125 | 1745 ft | 4 kts | 324° |
| 2026-04-28 15:26 | 33.55337 | 72.83145 | 1773 ft | 4 kts | 316° |
| 2026-04-28 15:26 | 33.55319 | 72.83169 | 1773 ft | 4 kts | 303° |
| 2026-04-28 15:26 | 33.55308 | 72.83197 | 1773 ft | 4 kts | 269° |
| 2026-04-28 15:27 | 33.55310 | 72.83212 | 1775 ft | 0 kts | 236° |
| 2026-04-28 15:33 | 33.55308 | 72.83208 | 1775 ft | 4 kts | 236° |
| 2026-04-28 15:33 | 33.55277 | 72.83153 | 1774 ft | 11 kts | 236° |
| 2026-04-28 15:33 | 33.55233 | 72.83076 | 1776 ft | 11 kts | 236° |
| 2026-04-28 15:34 | 33.55180 | 72.83012 | 1776 ft | 11 kts | 199° |
| 2026-04-28 15:34 | 33.55133 | 72.83036 | 1777 ft | 8 kts | 128° |
| 2026-04-28 15:34 | 33.55117 | 72.83097 | 1772 ft | 8 kts | 102° |
| 2026-04-28 15:34 | 33.55106 | 72.83161 | 1775 ft | 8 kts | 102° |
| 2026-04-28 15:35 | 33.55095 | 72.83224 | 1776 ft | 8 kts | 102° |
| 2026-04-28 15:35 | 33.55077 | 72.83351 | 1774 ft | 8 kts | 100° |
| 2026-04-28 15:35 | 33.55065 | 72.83435 | 1777 ft | 14 kts | 101° |
| 2026-04-28 15:36 | 33.55045 | 72.83556 | 1773 ft | 15 kts | 101° |
| 2026-04-28 15:36 | 33.55026 | 72.83679 | 1774 ft | 15 kts | 97° |
| 2026-04-28 15:36 | 33.55008 | 72.83801 | 1777 ft | 15 kts | 100° |
| 2026-04-28 15:36 | 33.54989 | 72.83923 | 1774 ft | 15 kts | 101° |
| 2026-04-28 15:37 | 33.54970 | 72.84046 | 1774 ft | 15 kts | 99° |
| 2026-04-28 15:37 | 33.54952 | 72.84168 | 1776 ft | 15 kts | 99° |
| 2026-04-28 15:37 | 33.54934 | 72.84290 | 1776 ft | 15 kts | 101° |
| 2026-04-28 15:37 | 33.54921 | 72.84371 | 1776 ft | 15 kts | 101° |
| 2026-04-28 15:38 | 33.54842 | 72.84440 | 1774 ft | 9 kts | 193° |
| 2026-04-28 15:38 | 33.54824 | 72.84435 | 1774 ft | 2 kts | 192° |
| 2026-04-28 15:38 | 33.54817 | 72.84433 | 1774 ft | 0 kts | 192° |
| 2026-04-28 15:42 | 33.54808 | 72.84431 | 1772 ft | 2 kts | 192° |
| 2026-04-28 15:42 | 33.54775 | 72.84422 | 1770 ft | 8 kts | 192° |
| 2026-04-28 15:43 | 33.54706 | 72.84405 | 1771 ft | 13 kts | 191° |
| 2026-04-28 15:43 | 33.54600 | 72.84379 | 1767 ft | 18 kts | 191° |
| 2026-04-28 15:43 | 33.54536 | 72.84306 | 1769 ft | 12 kts | 264° |
| 2026-04-28 15:43 | 33.54550 | 72.84203 | 1767 ft | 16 kts | 281° |
| 2026-04-28 15:44 | 33.54612 | 72.83817 | 1766 ft | 81 kts | 281° |
| 2026-04-28 15:44 | 33.54755 | 72.82898 | 1764 ft | 142 kts | 280° |
| 2026-04-28 15:44 | 33.54956 | 72.81560 | 1919 ft | 175 kts | 280° |
| 2026-04-28 15:44 | 33.55180 | 72.80123 | 2513 ft | 179 kts | 281° |
| 2026-04-28 15:45 | 33.55422 | 72.78596 | 3019 ft | 193 kts | 282° |
| 2026-04-28 15:45 | 33.55675 | 72.77013 | 3682 ft | 195 kts | 281° |
| 2026-04-28 15:45 | 33.55943 | 72.75307 | 3972 ft | 221 kts | 281° |
| 2026-04-28 15:45 | 33.56083 | 72.73379 | 4127 ft | 244 kts | 259° |
| 2026-04-28 15:46 | 33.55304 | 72.71577 | 4597 ft | 249 kts | 225° |
| 2026-04-28 15:46 | 33.54155 | 72.69967 | 4886 ft | 266 kts | 242° |
| 2026-04-28 15:46 | 33.53824 | 72.67750 | 5316 ft | 276 kts | 275° |
| 2026-04-28 15:46 | 33.54075 | 72.65428 | 5843 ft | 286 kts | 277° |
| 2026-04-28 15:47 | 33.54328 | 72.63077 | 6504 ft | 284 kts | 275° |
| 2026-04-28 15:47 | 33.54460 | 72.60685 | 7134 ft | 290 kts | 271° |
| 2026-04-28 15:47 | 33.54522 | 72.58295 | 8068 ft | 283 kts | 270° |
| 2026-04-28 15:47 | 33.54557 | 72.55953 | 8964 ft | 281 kts | 270° |
| 2026-04-28 15:48 | 33.54584 | 72.53597 | 9722 ft | 284 kts | 270° |
| 2026-04-28 15:48 | 33.54611 | 72.51219 | 10373 ft | 289 kts | 271° |
| 2026-04-28 15:48 | 33.54640 | 72.48729 | 10608 ft | 310 kts | 271° |
| 2026-04-28 15:48 | 33.54674 | 72.46051 | 10777 ft | 333 kts | 271° |
| 2026-04-28 15:49 | 33.54710 | 72.43178 | 10951 ft | 356 kts | 271° |
| 2026-04-28 15:49 | 33.54742 | 72.40177 | 11224 ft | 364 kts | 270° |
| 2026-04-28 15:49 | 33.54758 | 72.37112 | 11407 ft | 371 kts | 270° |
| 2026-04-28 15:49 | 33.54765 | 72.34009 | 11698 ft | 373 kts | 270° |
| 2026-04-28 15:50 | 33.54767 | 72.30933 | 12052 ft | 374 kts | 270° |
| 2026-04-28 15:50 | 33.54769 | 72.27820 | 12415 ft | 374 kts | 270° |
| 2026-04-28 15:50 | 33.54772 | 72.24704 | 12748 ft | 374 kts | 270° |
| 2026-04-28 15:50 | 33.54775 | 72.22602 | 13048 ft | 372 kts | 270° |
| 2026-04-28 15:51 | 33.54782 | 72.18499 | 13481 ft | 373 kts | 270° |
| 2026-04-28 15:51 | 33.54785 | 72.16397 | 13643 ft | 374 kts | 270° |
| 2026-04-28 15:51 | 33.54790 | 72.13275 | 13849 ft | 376 kts | 270° |
| 2026-04-28 15:51 | 33.54794 | 72.10128 | 14051 ft | 378 kts | 270° |
| 2026-04-28 15:52 | 33.54798 | 72.06974 | 14270 ft | 379 kts | 270° |
| 2026-04-28 15:52 | 33.54800 | 72.03806 | 14488 ft | 381 kts | 270° |
| 2026-04-28 15:52 | 33.54758 | 72.00624 | 14684 ft | 383 kts | 268° |
| 2026-04-28 15:52 | 33.54583 | 71.97554 | 14872 ft | 387 kts | 266° |
| 2026-04-28 15:53 | 33.54346 | 71.94332 | 15517 ft | 388 kts | 266° |
| 2026-04-28 15:53 | 33.54121 | 71.91099 | 16160 ft | 391 kts | 266° |
| 2026-04-28 15:53 | 33.53919 | 71.87826 | 16691 ft | 397 kts | 267° |
| 2026-04-28 15:53 | 33.53727 | 71.84514 | 17247 ft | 401 kts | 267° |
| 2026-04-28 15:54 | 33.53537 | 71.81162 | 17826 ft | 405 kts | 267° |
| 2026-04-28 15:54 | 33.53344 | 71.77786 | 18343 ft | 408 kts | 267° |
| 2026-04-28 15:54 | 33.53151 | 71.74424 | 18812 ft | 411 kts | 267° |
| 2026-04-28 15:54 | 33.52952 | 71.70991 | 19291 ft | 415 kts | 267° |
| 2026-04-28 15:55 | 33.52749 | 71.67528 | 19754 ft | 418 kts | 267° |
| 2026-04-28 15:55 | 33.52543 | 71.64039 | 20219 ft | 422 kts | 267° |
| 2026-04-28 15:55 | 33.52335 | 71.60523 | 20673 ft | 425 kts | 267° |
| 2026-04-28 15:55 | 33.52124 | 71.56975 | 21123 ft | 428 kts | 266° |
| 2026-04-28 15:56 | 33.51911 | 71.53419 | 21735 ft | 426 kts | 267° |
| 2026-04-28 15:56 | 33.51697 | 71.49875 | 22265 ft | 427 kts | 267° |
| 2026-04-28 15:56 | 33.51481 | 71.46300 | 22605 ft | 433 kts | 267° |
| 2026-04-28 15:56 | 33.51261 | 71.42679 | 22965 ft | 437 kts | 266° |
| 2026-04-28 15:57 | 33.51036 | 71.39033 | 23396 ft | 440 kts | 266° |
| 2026-04-28 15:57 | 33.50809 | 71.35372 | 23765 ft | 442 kts | 266° |
| 2026-04-28 15:57 | 33.50579 | 71.31693 | 24117 ft | 444 kts | 266° |
| 2026-04-28 15:57 | 33.50347 | 71.27987 | 24464 ft | 447 kts | 266° |
| 2026-04-28 15:58 | 33.50113 | 71.24261 | 24794 ft | 450 kts | 266° |
| 2026-04-28 15:58 | 33.49876 | 71.20511 | 25101 ft | 453 kts | 266° |
| 2026-04-28 15:58 | 33.49637 | 71.16738 | 25440 ft | 456 kts | 266° |
| 2026-04-28 15:58 | 33.49395 | 71.12937 | 25772 ft | 458 kts | 266° |
| 2026-04-28 15:59 | 33.49151 | 71.09123 | 26107 ft | 461 kts | 266° |
| 2026-04-28 15:59 | 33.48955 | 71.05278 | 26428 ft | 462 kts | 269° |
| 2026-04-28 15:59 | 33.49136 | 71.01465 | 26512 ft | 461 kts | 281° |
| 2026-04-28 15:59 | 33.50210 | 70.97985 | 26607 ft | 469 kts | 301° |
| 2026-04-28 16:00 | 33.52321 | 70.95005 | 26808 ft | 474 kts | 320° |
| 2026-04-28 16:00 | 33.54971 | 70.92715 | 26944 ft | 467 kts | 324° |
| 2026-04-28 16:00 | 33.57624 | 70.90481 | 26936 ft | 464 kts | 322° |
| 2026-04-28 16:00 | 33.60115 | 70.88047 | 26938 ft | 460 kts | 317° |
| 2026-04-28 16:01 | 33.62461 | 70.85401 | 27073 ft | 466 kts | 315° |
| 2026-04-28 16:01 | 33.64773 | 70.82645 | 27283 ft | 471 kts | 315° |
| 2026-04-28 16:01 | 33.67096 | 70.79863 | 27595 ft | 473 kts | 315° |
| 2026-04-28 16:01 | 33.69453 | 70.77090 | 27963 ft | 474 kts | 316° |
| 2026-04-28 16:02 | 33.71839 | 70.74342 | 28272 ft | 477 kts | 316° |
| 2026-04-28 16:02 | 33.74261 | 70.71594 | 28472 ft | 481 kts | 316° |
| 2026-04-28 16:02 | 33.76714 | 70.68833 | 28730 ft | 484 kts | 316° |
| 2026-04-28 16:02 | 33.79177 | 70.66059 | 28995 ft | 486 kts | 316° |
| 2026-04-28 16:03 | 33.81649 | 70.63267 | 29252 ft | 489 kts | 316° |
| 2026-04-28 16:03 | 33.84126 | 70.60455 | 29510 ft | 491 kts | 316° |
| 2026-04-28 16:03 | 33.86607 | 70.57631 | 29793 ft | 492 kts | 316° |
| 2026-04-28 16:03 | 33.89058 | 70.54839 | 30028 ft | 492 kts | 316° |
| 2026-04-28 16:04 | 33.93632 | 70.48905 | 30100 ft | 477 kts | 306° |
| 2026-04-28 16:04 | 33.96837 | 70.41958 | 30160 ft | 480 kts | 292° |
| 2026-04-28 16:05 | 33.99479 | 70.34651 | 30182 ft | 471 kts | 296° |
| 2026-04-28 16:05 | 34.02743 | 70.27771 | 30250 ft | 480 kts | 301° |
| 2026-04-28 16:06 | 34.06174 | 70.20766 | 30494 ft | 488 kts | 298° |
| 2026-04-28 16:06 | 34.07802 | 70.17195 | 30908 ft | 484 kts | 297° |
| 2026-04-28 16:06 | 34.09375 | 70.13611 | 31283 ft | 482 kts | 296° |
| 2026-04-28 16:07 | 34.10917 | 70.10026 | 31560 ft | 482 kts | 296° |
| 2026-04-28 16:07 | 34.12463 | 70.06422 | 31784 ft | 484 kts | 296° |
| 2026-04-28 16:07 | 34.15524 | 69.99356 | 32366 ft | 483 kts | 296° |
| 2026-04-28 16:08 | 34.17091 | 69.95768 | 32705 ft | 482 kts | 296° |
| 2026-04-28 16:08 | 34.18652 | 69.92188 | 33022 ft | 482 kts | 296° |
| 2026-04-28 16:08 | 34.20207 | 69.88607 | 33325 ft | 481 kts | 296° |
| 2026-04-28 16:09 | 34.23292 | 69.81465 | 34069 ft | 475 kts | 296° |
| 2026-04-28 16:09 | 34.24810 | 69.77941 | 34472 ft | 471 kts | 296° |
| 2026-04-28 16:09 | 34.26314 | 69.74445 | 34891 ft | 467 kts | 296° |
| 2026-04-28 16:10 | 34.29287 | 69.67533 | 35525 ft | 462 kts | 296° |
| 2026-04-28 16:10 | 34.30770 | 69.64082 | 35755 ft | 462 kts | 296° |
| 2026-04-28 16:10 | 34.33736 | 69.57167 | 35915 ft | 465 kts | 296° |
| 2026-04-28 16:11 | 34.39607 | 69.43450 | 35915 ft | 451 kts | 296° |
| 2026-04-28 16:12 | 34.43912 | 69.33348 | 35938 ft | 453 kts | 296° |
| 2026-04-28 16:13 | 34.48252 | 69.23140 | 35936 ft | 455 kts | 296° |
| 2026-04-28 16:13 | 34.51487 | 69.16654 | 35924 ft | 448 kts | 310° |
| 2026-04-28 16:14 | 34.56375 | 69.11842 | 35950 ft | 462 kts | 328° |
| 2026-04-28 16:15 | 34.67872 | 69.04913 | 35951 ft | 459 kts | 328° |
| 2026-04-28 16:15 | 34.73478 | 69.01073 | 35943 ft | 466 kts | 327° |
| 2026-04-28 16:16 | 34.81933 | 68.95423 | 35962 ft | 470 kts | 329° |
| 2026-04-28 16:17 | 34.90525 | 68.89847 | 35971 ft | 462 kts | 329° |
| 2026-04-28 16:17 | 34.96209 | 68.86161 | 35991 ft | 463 kts | 329° |
| 2026-04-28 16:18 | 35.01869 | 68.82473 | 36029 ft | 461 kts | 328° |
| 2026-04-28 16:18 | 35.07516 | 68.78779 | 36070 ft | 460 kts | 328° |
| 2026-04-28 16:19 | 35.13173 | 68.75067 | 36069 ft | 461 kts | 329° |
| 2026-04-28 16:19 | 35.18809 | 68.71383 | 36077 ft | 458 kts | 328° |
| 2026-04-28 16:20 | 35.24397 | 68.67715 | 36105 ft | 454 kts | 328° |
| 2026-04-28 16:20 | 35.29981 | 68.64043 | 36144 ft | 459 kts | 328° |
| 2026-04-28 16:21 | 35.35686 | 68.60283 | 36121 ft | 469 kts | 329° |
| 2026-04-28 16:21 | 35.41441 | 68.56494 | 36136 ft | 465 kts | 328° |
| 2026-04-28 16:22 | 35.47094 | 68.52751 | 36103 ft | 460 kts | 328° |
| 2026-04-28 16:22 | 35.52718 | 68.49030 | 36118 ft | 459 kts | 328° |
| 2026-04-28 16:23 | 35.58327 | 68.45314 | 36104 ft | 458 kts | 328° |
| 2026-04-28 16:23 | 35.63922 | 68.41590 | 36094 ft | 457 kts | 328° |
| 2026-04-28 16:24 | 35.69509 | 68.37850 | 36095 ft | 458 kts | 328° |
| 2026-04-28 16:24 | 35.75115 | 68.34082 | 36092 ft | 460 kts | 328° |
| 2026-04-28 16:25 | 35.80702 | 68.30325 | 36093 ft | 461 kts | 328° |
| 2026-04-28 16:25 | 35.86336 | 68.26533 | 36102 ft | 462 kts | 328° |
| 2026-04-28 16:26 | 35.91990 | 68.22721 | 36091 ft | 464 kts | 328° |
| 2026-04-28 16:26 | 35.97655 | 68.18894 | 36078 ft | 464 kts | 328° |
| 2026-04-28 16:27 | 36.03309 | 68.15069 | 36082 ft | 464 kts | 328° |
| 2026-04-28 16:28 | 36.11809 | 68.09310 | 36066 ft | 465 kts | 328° |
| 2026-04-28 16:28 | 36.17490 | 68.05450 | 36027 ft | 466 kts | 328° |
| 2026-04-28 16:29 | 36.25855 | 67.99760 | 36017 ft | 461 kts | 328° |
| 2026-04-28 16:30 | 36.34260 | 67.94024 | 36007 ft | 458 kts | 328° |
| 2026-04-28 16:30 | 36.39845 | 67.90205 | 35980 ft | 458 kts | 328° |
| 2026-04-28 16:31 | 36.45385 | 67.86410 | 35967 ft | 458 kts | 328° |
| 2026-04-28 16:31 | 36.51011 | 67.82550 | 35965 ft | 460 kts | 328° |
| 2026-04-28 16:32 | 36.56589 | 67.78718 | 35960 ft | 462 kts | 327° |
| 2026-04-28 16:32 | 36.65095 | 67.72860 | 35974 ft | 465 kts | 328° |
| 2026-04-28 16:33 | 36.68850 | 67.70270 | 35952 ft | 467 kts | 328° |
| 2026-04-28 16:33 | 36.76456 | 67.65025 | 35949 ft | 467 kts | 328° |
| 2026-04-28 16:34 | 36.82140 | 67.61114 | 35930 ft | 466 kts | 328° |
| 2026-04-28 16:34 | 36.87777 | 67.57228 | 35924 ft | 465 kts | 328° |
| 2026-04-28 16:35 | 36.93472 | 67.53291 | 35923 ft | 464 kts | 328° |
| 2026-04-28 16:35 | 36.99078 | 67.49408 | 35915 ft | 463 kts | 328° |
| 2026-04-28 16:36 | 37.04701 | 67.45507 | 35906 ft | 462 kts | 328° |
| 2026-04-28 16:36 | 37.10313 | 67.41607 | 35913 ft | 461 kts | 328° |
| 2026-04-28 16:37 | 37.15922 | 67.37703 | 35905 ft | 461 kts | 328° |
| 2026-04-28 16:38 | 37.24666 | 67.32597 | 35893 ft | 463 kts | 339° |
| 2026-04-28 16:38 | 37.29834 | 67.30746 | 35937 ft | 466 kts | 341° |
| 2026-04-28 16:39 | 37.35893 | 67.28016 | 35946 ft | 459 kts | 331° |
| 2026-04-28 16:39 | 37.41503 | 67.24062 | 35946 ft | 466 kts | 326° |
| 2026-04-28 16:40 | 37.47100 | 67.19870 | 35922 ft | 466 kts | 327° |
| 2026-04-28 16:40 | 37.52769 | 67.16055 | 35934 ft | 460 kts | 329° |
| 2026-04-28 16:41 | 37.58475 | 67.12384 | 35916 ft | 460 kts | 329° |
| 2026-04-28 16:41 | 37.64167 | 67.08678 | 35913 ft | 460 kts | 329° |
| 2026-04-28 16:42 | 37.69831 | 67.04900 | 35923 ft | 460 kts | 327° |
| 2026-04-28 16:42 | 37.75152 | 67.00546 | 35948 ft | 456 kts | 322° |
| 2026-04-28 16:43 | 37.80214 | 66.95926 | 35950 ft | 459 kts | 321° |
| 2026-04-28 16:43 | 37.85440 | 66.91245 | 35955 ft | 461 kts | 322° |
| 2026-04-28 16:44 | 37.90736 | 66.86621 | 35976 ft | 463 kts | 322° |
| 2026-04-28 16:44 | 37.96056 | 66.81986 | 35979 ft | 465 kts | 322° |
| 2026-04-28 16:45 | 38.01379 | 66.77327 | 35987 ft | 465 kts | 322° |
| 2026-04-28 16:45 | 38.06709 | 66.72646 | 35980 ft | 466 kts | 322° |
| 2026-04-28 16:46 | 38.12043 | 66.67958 | 35989 ft | 466 kts | 322° |
| 2026-04-28 16:46 | 38.17375 | 66.63263 | 35971 ft | 466 kts | 322° |
| 2026-04-28 16:47 | 38.22661 | 66.58600 | 35977 ft | 465 kts | 322° |
| 2026-04-28 16:47 | 38.28008 | 66.53875 | 35977 ft | 464 kts | 322° |
| 2026-04-28 16:48 | 38.33268 | 66.49219 | 35948 ft | 463 kts | 322° |
| 2026-04-28 16:48 | 38.38539 | 66.44540 | 35938 ft | 461 kts | 322° |
| 2026-04-28 16:49 | 38.43792 | 66.39870 | 35948 ft | 460 kts | 322° |
| 2026-04-28 16:49 | 38.49035 | 66.35203 | 35939 ft | 459 kts | 322° |
| 2026-04-28 16:50 | 38.54275 | 66.30529 | 35926 ft | 460 kts | 322° |
| 2026-04-28 16:50 | 38.59544 | 66.25845 | 36039 ft | 464 kts | 323° |
| 2026-04-28 16:50 | 38.62280 | 66.23658 | 36249 ft | 465 kts | 327° |
| 2026-04-28 16:51 | 38.65138 | 66.21716 | 36518 ft | 464 kts | 331° |
| 2026-04-28 16:51 | 38.68099 | 66.20047 | 36705 ft | 467 kts | 334° |
| 2026-04-28 16:51 | 38.71137 | 66.18564 | 36892 ft | 468 kts | 336° |
| 2026-04-28 16:51 | 38.74227 | 66.17222 | 37059 ft | 469 kts | 338° |
| 2026-04-28 16:52 | 38.77326 | 66.15909 | 37271 ft | 469 kts | 338° |
| 2026-04-28 16:52 | 38.80415 | 66.14555 | 37498 ft | 468 kts | 336° |
| 2026-04-28 16:52 | 38.83478 | 66.13145 | 37729 ft | 467 kts | 336° |
| 2026-04-28 16:52 | 38.86522 | 66.11683 | 37836 ft | 468 kts | 335° |
| 2026-04-28 16:53 | 38.89526 | 66.10199 | 37897 ft | 469 kts | 335° |
| 2026-04-28 16:53 | 38.95646 | 66.07135 | 37906 ft | 468 kts | 335° |
| 2026-04-28 16:54 | 39.01644 | 66.04141 | 37906 ft | 465 kts | 335° |
| 2026-04-28 16:54 | 39.07664 | 66.01148 | 37908 ft | 462 kts | 335° |
| 2026-04-28 16:55 | 39.13525 | 65.98234 | 37906 ft | 461 kts | 335° |
| 2026-04-28 16:55 | 39.19505 | 65.95251 | 37907 ft | 461 kts | 335° |
| 2026-04-28 16:56 | 39.25488 | 65.92260 | 37914 ft | 462 kts | 335° |
| 2026-04-28 16:56 | 39.31495 | 65.89254 | 37907 ft | 464 kts | 335° |
| 2026-04-28 16:57 | 39.37528 | 65.86229 | 37912 ft | 466 kts | 335° |
| 2026-04-28 16:57 | 39.43576 | 65.83191 | 37919 ft | 467 kts | 334° |
| 2026-04-28 16:58 | 39.49641 | 65.80138 | 37920 ft | 468 kts | 334° |
| 2026-04-28 16:58 | 39.55711 | 65.77077 | 37921 ft | 468 kts | 334° |
| 2026-04-28 16:59 | 39.61781 | 65.74010 | 37932 ft | 468 kts | 334° |
| 2026-04-28 16:59 | 39.67848 | 65.70938 | 37926 ft | 468 kts | 334° |
| 2026-04-28 17:00 | 39.73905 | 65.67867 | 37932 ft | 467 kts | 334° |
| 2026-04-28 17:00 | 39.79948 | 65.64796 | 37946 ft | 466 kts | 334° |
| 2026-04-28 17:01 | 39.85984 | 65.61723 | 37942 ft | 466 kts | 334° |
| 2026-04-28 17:01 | 39.92011 | 65.58648 | 37936 ft | 465 kts | 334° |
| 2026-04-28 17:02 | 39.98028 | 65.55571 | 37957 ft | 464 kts | 334° |
| 2026-04-28 17:02 | 40.04027 | 65.52498 | 37951 ft | 464 kts | 334° |
| 2026-04-28 17:03 | 40.13033 | 65.47858 | 37972 ft | 464 kts | 334° |
| 2026-04-28 17:03 | 40.19038 | 65.44749 | 37966 ft | 464 kts | 334° |
| 2026-04-28 17:04 | 40.28040 | 65.40079 | 37973 ft | 464 kts | 334° |
| 2026-04-28 17:05 | 40.37048 | 65.35394 | 37966 ft | 464 kts | 334° |
| 2026-04-28 17:06 | 40.46054 | 65.30696 | 37947 ft | 464 kts | 334° |
| 2026-04-28 17:06 | 40.55059 | 65.25986 | 37951 ft | 464 kts | 333° |
| 2026-04-28 17:07 | 40.61062 | 65.22848 | 37948 ft | 464 kts | 333° |
| 2026-04-28 17:07 | 40.67065 | 65.19710 | 37948 ft | 464 kts | 333° |
| 2026-04-28 17:08 | 40.73069 | 65.16565 | 37947 ft | 465 kts | 333° |
| 2026-04-28 17:08 | 40.79035 | 65.13431 | 37941 ft | 464 kts | 333° |
| 2026-04-28 17:09 | 40.85035 | 65.10273 | 37942 ft | 464 kts | 333° |
| 2026-04-28 17:09 | 40.91043 | 65.07110 | 37929 ft | 465 kts | 333° |
| 2026-04-28 17:10 | 40.97042 | 65.03950 | 37948 ft | 464 kts | 333° |
| 2026-04-28 17:10 | 41.03028 | 65.00791 | 37957 ft | 464 kts | 333° |
| 2026-04-28 17:11 | 41.08916 | 64.97675 | 37944 ft | 464 kts | 333° |
| 2026-04-28 17:11 | 41.14913 | 64.94496 | 37938 ft | 464 kts | 333° |
| 2026-04-28 17:12 | 41.20903 | 64.91314 | 37951 ft | 463 kts | 333° |
| 2026-04-28 17:12 | 41.26885 | 64.88128 | 37948 ft | 463 kts | 333° |
| 2026-04-28 17:13 | 41.32865 | 64.84934 | 37946 ft | 463 kts | 333° |
| 2026-04-28 17:13 | 41.38838 | 64.81736 | 37961 ft | 463 kts | 333° |
| 2026-04-28 17:14 | 41.44812 | 64.78532 | 37948 ft | 463 kts | 333° |
| 2026-04-28 17:14 | 41.50786 | 64.75322 | 37947 ft | 463 kts | 333° |
| 2026-04-28 17:15 | 41.56754 | 64.72109 | 37958 ft | 463 kts | 333° |
| 2026-04-28 17:15 | 41.62686 | 64.68908 | 37951 ft | 463 kts | 333° |
| 2026-04-28 17:16 | 41.68652 | 64.65683 | 37947 ft | 463 kts | 333° |
| 2026-04-28 17:16 | 41.74624 | 64.62448 | 37953 ft | 463 kts | 333° |
| 2026-04-28 17:17 | 41.80587 | 64.59171 | 37951 ft | 463 kts | 332° |
| 2026-04-28 17:17 | 41.86530 | 64.55829 | 37942 ft | 463 kts | 332° |
| 2026-04-28 17:18 | 41.92474 | 64.52473 | 37952 ft | 464 kts | 332° |
| 2026-04-28 17:18 | 41.98429 | 64.49115 | 37950 ft | 464 kts | 332° |
| 2026-04-28 17:19 | 42.04375 | 64.45763 | 37942 ft | 465 kts | 332° |
| 2026-04-28 17:19 | 42.10349 | 64.42389 | 37953 ft | 466 kts | 333° |
| 2026-04-28 17:20 | 42.15313 | 64.39580 | 37952 ft | 466 kts | 333° |
| 2026-04-28 17:20 | 42.22294 | 64.35620 | 37942 ft | 466 kts | 332° |
| 2026-04-28 17:21 | 42.28271 | 64.32222 | 37946 ft | 466 kts | 332° |
| 2026-04-28 17:22 | 42.37237 | 64.27111 | 37944 ft | 466 kts | 332° |
| 2026-04-28 17:22 | 42.43215 | 64.23695 | 37949 ft | 466 kts | 332° |
| 2026-04-28 17:23 | 42.52204 | 64.18623 | 37949 ft | 467 kts | 333° |
| 2026-04-28 17:23 | 42.58152 | 64.15116 | 37966 ft | 464 kts | 328° |
| 2026-04-28 17:24 | 42.60951 | 64.13019 | 37947 ft | 453 kts | 322° |
| 2026-04-28 17:24 | 42.63445 | 64.10481 | 37969 ft | 447 kts | 314° |
| 2026-04-28 17:24 | 42.67175 | 64.05600 | 37963 ft | 449 kts | 311° |
| 2026-04-28 17:25 | 42.74283 | 63.97394 | 37977 ft | 459 kts | 318° |
| 2026-04-28 17:26 | 42.80169 | 63.91128 | 37970 ft | 464 kts | 317° |
| 2026-04-28 17:26 | 42.84357 | 63.86447 | 37966 ft | 465 kts | 316° |
| 2026-04-28 17:27 | 42.89272 | 63.80850 | 37962 ft | 456 kts | 316° |
| 2026-04-28 17:27 | 42.94099 | 63.75355 | 37964 ft | 454 kts | 316° |
| 2026-04-28 17:28 | 42.98947 | 63.69843 | 37967 ft | 453 kts | 316° |
| 2026-04-28 17:28 | 43.06203 | 63.61570 | 37964 ft | 454 kts | 315° |
| 2026-04-28 17:29 | 43.11056 | 63.56019 | 37978 ft | 456 kts | 315° |
| 2026-04-28 17:30 | 43.18363 | 63.47639 | 37966 ft | 458 kts | 315° |
| 2026-04-28 17:30 | 43.25694 | 63.39205 | 37966 ft | 459 kts | 315° |
| 2026-04-28 17:31 | 43.33039 | 63.30728 | 37969 ft | 460 kts | 315° |
| 2026-04-28 17:32 | 43.40381 | 63.22222 | 37962 ft | 461 kts | 315° |
| 2026-04-28 17:32 | 43.45275 | 63.16535 | 37968 ft | 460 kts | 315° |
| 2026-04-28 17:33 | 43.50163 | 63.10842 | 37977 ft | 460 kts | 315° |
| 2026-04-28 17:33 | 43.54220 | 63.06106 | 37970 ft | 460 kts | 315° |
| 2026-04-28 17:34 | 43.59831 | 62.99545 | 37972 ft | 460 kts | 315° |
| 2026-04-28 17:34 | 43.64706 | 62.93839 | 37973 ft | 459 kts | 315° |
| 2026-04-28 17:35 | 43.69589 | 62.88135 | 37977 ft | 460 kts | 315° |
| 2026-04-28 17:35 | 43.74465 | 62.82425 | 37970 ft | 460 kts | 315° |
| 2026-04-28 17:36 | 43.79337 | 62.76697 | 37978 ft | 460 kts | 315° |
| 2026-04-28 17:36 | 43.84206 | 62.70953 | 37976 ft | 460 kts | 315° |
| 2026-04-28 17:37 | 43.89069 | 62.65204 | 37978 ft | 460 kts | 315° |
| 2026-04-28 17:37 | 43.93902 | 62.59479 | 37992 ft | 460 kts | 315° |
| 2026-04-28 17:38 | 43.98766 | 62.53705 | 37995 ft | 460 kts | 314° |
| 2026-04-28 17:38 | 44.03624 | 62.47926 | 37986 ft | 461 kts | 314° |
| 2026-04-28 17:39 | 44.08488 | 62.42124 | 37987 ft | 461 kts | 314° |
| 2026-04-28 17:40 | 44.15787 | 62.33396 | 37993 ft | 461 kts | 314° |
| 2026-04-28 17:40 | 44.20652 | 62.27559 | 37990 ft | 462 kts | 314° |
| 2026-04-28 17:41 | 44.25510 | 62.21700 | 37997 ft | 462 kts | 314° |
| 2026-04-28 17:41 | 44.30361 | 62.15831 | 38007 ft | 462 kts | 314° |
| 2026-04-28 17:42 | 44.35219 | 62.09942 | 38006 ft | 462 kts | 314° |
| 2026-04-28 17:42 | 44.40076 | 62.04042 | 37988 ft | 463 kts | 314° |
| 2026-04-28 17:43 | 44.44842 | 61.98239 | 38008 ft | 463 kts | 314° |
| 2026-04-28 17:43 | 44.49697 | 61.92317 | 38003 ft | 463 kts | 314° |
| 2026-04-28 17:44 | 44.54553 | 61.86379 | 37997 ft | 464 kts | 314° |
| 2026-04-28 17:44 | 44.59409 | 61.80425 | 38001 ft | 464 kts | 314° |
| 2026-04-28 17:45 | 44.64265 | 61.74460 | 38016 ft | 464 kts | 313° |
| 2026-04-28 17:45 | 44.69124 | 61.68476 | 38009 ft | 464 kts | 313° |
| 2026-04-28 17:46 | 44.73978 | 61.62484 | 38012 ft | 465 kts | 313° |
| 2026-04-28 17:46 | 44.78834 | 61.56475 | 38023 ft | 465 kts | 313° |
| 2026-04-28 17:47 | 44.83691 | 61.50451 | 38017 ft | 465 kts | 313° |
| 2026-04-28 17:47 | 44.88545 | 61.44418 | 38016 ft | 465 kts | 313° |
| 2026-04-28 17:48 | 44.93399 | 61.38377 | 38044 ft | 465 kts | 313° |
| 2026-04-28 17:48 | 44.98253 | 61.32332 | 38023 ft | 466 kts | 313° |
| 2026-04-28 17:49 | 45.03095 | 61.26287 | 38019 ft | 466 kts | 313° |
| 2026-04-28 17:49 | 45.07913 | 61.20253 | 38023 ft | 465 kts | 313° |
| 2026-04-28 17:50 | 45.12754 | 61.14178 | 38033 ft | 465 kts | 313° |
| 2026-04-28 17:50 | 45.17595 | 61.08086 | 38035 ft | 465 kts | 313° |
| 2026-04-28 17:51 | 45.22432 | 61.01986 | 38037 ft | 465 kts | 313° |
| 2026-04-28 17:51 | 45.27180 | 60.95984 | 38042 ft | 465 kts | 313° |
| 2026-04-28 17:52 | 45.32013 | 60.89860 | 38036 ft | 466 kts | 312° |
| 2026-04-28 17:52 | 45.39261 | 60.80649 | 38035 ft | 466 kts | 312° |
| 2026-04-28 17:53 | 45.44086 | 60.74499 | 38037 ft | 466 kts | 312° |
| 2026-04-28 17:53 | 45.48911 | 60.68334 | 38036 ft | 466 kts | 312° |
| 2026-04-28 17:54 | 45.53728 | 60.62161 | 38041 ft | 466 kts | 312° |
| 2026-04-28 17:54 | 45.58545 | 60.55974 | 38074 ft | 466 kts | 312° |
| 2026-04-28 17:55 | 45.63354 | 60.49781 | 38043 ft | 466 kts | 312° |
| 2026-04-28 17:55 | 45.68166 | 60.43570 | 38049 ft | 466 kts | 312° |
| 2026-04-28 17:56 | 45.72971 | 60.37353 | 38053 ft | 465 kts | 312° |
| 2026-04-28 17:56 | 45.77770 | 60.31129 | 38065 ft | 465 kts | 312° |
| 2026-04-28 17:57 | 45.82563 | 60.24896 | 38057 ft | 465 kts | 312° |
| 2026-04-28 17:57 | 45.87350 | 60.18656 | 38059 ft | 465 kts | 312° |
| 2026-04-28 17:58 | 45.92126 | 60.12417 | 38084 ft | 464 kts | 311° |
| 2026-04-28 17:58 | 45.96906 | 60.06156 | 38058 ft | 465 kts | 311° |
| 2026-04-28 17:59 | 46.01639 | 59.99942 | 38069 ft | 464 kts | 311° |
| 2026-04-28 17:59 | 46.06309 | 59.93796 | 38069 ft | 464 kts | 311° |
| 2026-04-28 18:00 | 46.11071 | 59.87512 | 38076 ft | 465 kts | 311° |
| 2026-04-28 18:00 | 46.15839 | 59.81204 | 38077 ft | 465 kts | 311° |
| 2026-04-28 18:01 | 46.20606 | 59.74885 | 38080 ft | 465 kts | 311° |
| 2026-04-28 18:01 | 46.25335 | 59.68506 | 38104 ft | 464 kts | 310° |
| 2026-04-28 18:02 | 46.29918 | 59.61931 | 38093 ft | 464 kts | 309° |
| 2026-04-28 18:02 | 46.34470 | 59.55295 | 38085 ft | 465 kts | 309° |
| 2026-04-28 18:03 | 46.39042 | 59.48664 | 38090 ft | 465 kts | 309° |
| 2026-04-28 18:03 | 46.43627 | 59.42044 | 38082 ft | 466 kts | 309° |
| 2026-04-28 18:04 | 46.48216 | 59.35415 | 38093 ft | 466 kts | 309° |
| 2026-04-28 18:04 | 46.52802 | 59.28773 | 38095 ft | 466 kts | 309° |
| 2026-04-28 18:05 | 46.56609 | 59.23243 | 38097 ft | 466 kts | 309° |
| 2026-04-28 18:05 | 46.61963 | 59.15440 | 38101 ft | 467 kts | 309° |
| 2026-04-28 18:06 | 46.66549 | 59.08741 | 38105 ft | 467 kts | 309° |
| 2026-04-28 18:06 | 46.71135 | 59.02026 | 38102 ft | 467 kts | 309° |
| 2026-04-28 18:07 | 46.75636 | 58.95418 | 38112 ft | 468 kts | 309° |
| 2026-04-28 18:07 | 46.80220 | 58.88668 | 38112 ft | 469 kts | 309° |
| 2026-04-28 18:08 | 46.84808 | 58.81896 | 38110 ft | 469 kts | 309° |
| 2026-04-28 18:08 | 46.89393 | 58.75114 | 38114 ft | 469 kts | 309° |
| 2026-04-28 18:09 | 46.93946 | 58.68360 | 38115 ft | 470 kts | 309° |
| 2026-04-28 18:09 | 46.98531 | 58.61541 | 38112 ft | 470 kts | 309° |
| 2026-04-28 18:10 | 47.03102 | 58.54726 | 38115 ft | 470 kts | 309° |
| 2026-04-28 18:10 | 47.07677 | 58.47884 | 38110 ft | 470 kts | 309° |
| 2026-04-28 18:11 | 47.12244 | 58.41039 | 38119 ft | 469 kts | 309° |
| 2026-04-28 18:11 | 47.16810 | 58.34178 | 38113 ft | 469 kts | 309° |
| 2026-04-28 18:12 | 47.21363 | 58.27318 | 38130 ft | 469 kts | 309° |
| 2026-04-28 18:12 | 47.25913 | 58.20442 | 38132 ft | 469 kts | 309° |
| 2026-04-28 18:13 | 47.29700 | 58.14708 | 38110 ft | 470 kts | 309° |
| 2026-04-28 18:13 | 47.34278 | 58.07763 | 38132 ft | 476 kts | 309° |
| 2026-04-28 18:14 | 47.38918 | 58.00714 | 38132 ft | 482 kts | 309° |
| 2026-04-28 18:14 | 47.43521 | 57.93702 | 38131 ft | 487 kts | 309° |
| 2026-04-28 18:15 | 47.48252 | 57.86478 | 38124 ft | 491 kts | 309° |
| 2026-04-28 18:15 | 47.53006 | 57.79198 | 38128 ft | 493 kts | 309° |
| 2026-04-28 18:16 | 47.57773 | 57.71874 | 38139 ft | 495 kts | 309° |
| 2026-04-28 18:16 | 47.62546 | 57.64522 | 38134 ft | 495 kts | 309° |
| 2026-04-28 18:17 | 47.67309 | 57.57159 | 38129 ft | 494 kts | 309° |
| 2026-04-28 18:17 | 47.72047 | 57.49802 | 38122 ft | 492 kts | 309° |
| 2026-04-28 18:18 | 47.76766 | 57.42450 | 38128 ft | 491 kts | 309° |
| 2026-04-28 18:18 | 47.80668 | 57.36355 | 38126 ft | 489 kts | 309° |
| 2026-04-28 18:19 | 47.86130 | 57.27803 | 38133 ft | 487 kts | 309° |
| 2026-04-28 18:19 | 47.90793 | 57.20478 | 38147 ft | 486 kts | 309° |
| 2026-04-28 18:20 | 47.95447 | 57.13148 | 38139 ft | 486 kts | 309° |
| 2026-04-28 18:20 | 48.00079 | 57.05832 | 38135 ft | 486 kts | 309° |
| 2026-04-28 18:21 | 48.04632 | 56.98621 | 38140 ft | 486 kts | 309° |
| 2026-04-28 18:21 | 48.09272 | 56.91251 | 38150 ft | 487 kts | 308° |
| 2026-04-28 18:22 | 48.13910 | 56.83861 | 38141 ft | 487 kts | 308° |
| 2026-04-28 18:22 | 48.18520 | 56.76498 | 38144 ft | 488 kts | 308° |
| 2026-04-28 18:23 | 48.23154 | 56.69076 | 38164 ft | 488 kts | 308° |
| 2026-04-28 18:23 | 48.27792 | 56.61628 | 38149 ft | 488 kts | 308° |
| 2026-04-28 18:24 | 48.31670 | 56.55380 | 38147 ft | 488 kts | 308° |
| 2026-04-28 18:24 | 48.37069 | 56.46661 | 38147 ft | 487 kts | 308° |
| 2026-04-28 18:25 | 48.41688 | 56.39180 | 38164 ft | 488 kts | 308° |
| 2026-04-28 18:26 | 48.48564 | 56.27998 | 38151 ft | 487 kts | 308° |
| 2026-04-28 18:26 | 48.53152 | 56.20511 | 38157 ft | 486 kts | 308° |
| 2026-04-28 18:27 | 48.57733 | 56.13020 | 38164 ft | 486 kts | 307° |
| 2026-04-28 18:27 | 48.62310 | 56.05516 | 38146 ft | 486 kts | 307° |
| 2026-04-28 18:28 | 48.66796 | 55.98137 | 38151 ft | 485 kts | 307° |
| 2026-04-28 18:28 | 48.71366 | 55.90608 | 38146 ft | 486 kts | 307° |
| 2026-04-28 18:29 | 48.75946 | 55.83072 | 38146 ft | 486 kts | 307° |
| 2026-04-28 18:29 | 48.80519 | 55.75526 | 38146 ft | 486 kts | 307° |
| 2026-04-28 18:30 | 48.85091 | 55.67956 | 38146 ft | 486 kts | 307° |
| 2026-04-28 18:30 | 48.89649 | 55.60363 | 38181 ft | 486 kts | 307° |
| 2026-04-28 18:31 | 48.94204 | 55.52738 | 38150 ft | 487 kts | 307° |
| 2026-04-28 18:31 | 48.98755 | 55.45094 | 38141 ft | 487 kts | 307° |
| 2026-04-28 18:32 | 49.03285 | 55.37466 | 38142 ft | 487 kts | 307° |
| 2026-04-28 18:32 | 49.07827 | 55.29801 | 38168 ft | 487 kts | 306° |
| 2026-04-28 18:33 | 49.12368 | 55.22111 | 38153 ft | 487 kts | 306° |
| 2026-04-28 18:33 | 49.16901 | 55.14415 | 38143 ft | 487 kts | 306° |
| 2026-04-28 18:34 | 49.21388 | 55.06773 | 38144 ft | 486 kts | 306° |
| 2026-04-28 18:34 | 49.25814 | 54.99209 | 38151 ft | 486 kts | 306° |
| 2026-04-28 18:35 | 49.30321 | 54.91484 | 38151 ft | 486 kts | 306° |
| 2026-04-28 18:35 | 49.34823 | 54.83744 | 38146 ft | 486 kts | 306° |
| 2026-04-28 18:36 | 49.39322 | 54.75984 | 38145 ft | 486 kts | 306° |
| 2026-04-28 18:36 | 49.43817 | 54.68211 | 38157 ft | 487 kts | 305° |
| 2026-04-28 18:37 | 49.48309 | 54.60419 | 38145 ft | 487 kts | 305° |
| 2026-04-28 18:37 | 49.52802 | 54.52601 | 38151 ft | 487 kts | 305° |
| 2026-04-28 18:38 | 49.57286 | 54.44774 | 38190 ft | 488 kts | 305° |
| 2026-04-28 18:38 | 49.61780 | 54.36908 | 38154 ft | 489 kts | 305° |
| 2026-04-28 18:39 | 49.66269 | 54.29026 | 38152 ft | 489 kts | 305° |
| 2026-04-28 18:39 | 49.70752 | 54.21131 | 38156 ft | 489 kts | 305° |
| 2026-04-28 18:40 | 49.75235 | 54.13210 | 38165 ft | 490 kts | 305° |
| 2026-04-28 18:40 | 49.79719 | 54.05265 | 38157 ft | 490 kts | 304° |
| 2026-04-28 18:41 | 49.84112 | 53.97456 | 38158 ft | 490 kts | 304° |
| 2026-04-28 18:41 | 49.88588 | 53.89477 | 38162 ft | 490 kts | 304° |
| 2026-04-28 18:42 | 49.93031 | 53.81533 | 38159 ft | 491 kts | 304° |
| 2026-04-28 18:42 | 49.97531 | 53.73462 | 38162 ft | 491 kts | 304° |
| 2026-04-28 18:43 | 50.01954 | 53.65500 | 38141 ft | 491 kts | 304° |
| 2026-04-28 18:43 | 50.06410 | 53.57456 | 38143 ft | 491 kts | 304° |
| 2026-04-28 18:44 | 50.10858 | 53.49399 | 38167 ft | 491 kts | 304° |
| 2026-04-28 18:44 | 50.17520 | 53.37287 | 38152 ft | 490 kts | 304° |
| 2026-04-28 18:45 | 50.21944 | 53.29212 | 38153 ft | 489 kts | 304° |
| 2026-04-28 18:45 | 50.26360 | 53.21126 | 38172 ft | 489 kts | 304° |
| 2026-04-28 18:46 | 50.30773 | 53.13019 | 38161 ft | 489 kts | 304° |
| 2026-04-28 18:46 | 50.35171 | 53.04917 | 38151 ft | 488 kts | 304° |
| 2026-04-28 18:47 | 50.39480 | 52.96952 | 38136 ft | 488 kts | 304° |
| 2026-04-28 18:47 | 50.43860 | 52.88832 | 38159 ft | 488 kts | 303° |
| 2026-04-28 18:48 | 50.48235 | 52.80692 | 38156 ft | 488 kts | 303° |
| 2026-04-28 18:48 | 50.52601 | 52.72546 | 38149 ft | 488 kts | 303° |
| 2026-04-28 18:49 | 50.55492 | 52.67138 | 38151 ft | 488 kts | 303° |
| 2026-04-28 18:49 | 50.61326 | 52.56187 | 38151 ft | 489 kts | 303° |
| 2026-04-28 18:50 | 50.65686 | 52.47975 | 38138 ft | 489 kts | 303° |
| 2026-04-28 18:50 | 50.70048 | 52.39742 | 38141 ft | 489 kts | 303° |
| 2026-04-28 18:51 | 50.74429 | 52.31519 | 38133 ft | 490 kts | 304° |
| 2026-04-28 18:51 | 50.78818 | 52.23285 | 38135 ft | 490 kts | 304° |
| 2026-04-28 18:52 | 50.83192 | 52.15045 | 38135 ft | 489 kts | 304° |
| 2026-04-28 18:52 | 50.87552 | 52.06792 | 38139 ft | 488 kts | 303° |
| 2026-04-28 18:53 | 50.91803 | 51.98719 | 38155 ft | 487 kts | 303° |
| 2026-04-28 18:53 | 50.96132 | 51.90471 | 38132 ft | 486 kts | 303° |
| 2026-04-28 18:54 | 51.00407 | 51.82300 | 38120 ft | 485 kts | 303° |
| 2026-04-28 18:54 | 51.04705 | 51.74058 | 38119 ft | 484 kts | 303° |
| 2026-04-28 18:55 | 51.08294 | 51.67156 | 38113 ft | 483 kts | 303° |
| 2026-04-28 18:55 | 51.13317 | 51.57618 | 38120 ft | 486 kts | 306° |
| 2026-04-28 18:56 | 51.18210 | 51.50097 | 38136 ft | 491 kts | 315° |
| 2026-04-28 18:56 | 51.23922 | 51.43970 | 38155 ft | 499 kts | 323° |
| 2026-04-28 18:57 | 51.29931 | 51.38364 | 38149 ft | 501 kts | 322° |
| 2026-04-28 18:57 | 51.35800 | 51.32338 | 38116 ft | 501 kts | 320° |
| 2026-04-28 18:58 | 51.41577 | 51.26047 | 38097 ft | 503 kts | 319° |
| 2026-04-28 18:58 | 51.47406 | 51.19798 | 38095 ft | 506 kts | 320° |
| 2026-04-28 18:59 | 51.53301 | 51.13587 | 38090 ft | 508 kts | 320° |
| 2026-04-28 18:59 | 51.59199 | 51.07347 | 38091 ft | 507 kts | 320° |
| 2026-04-28 19:00 | 51.65122 | 51.01184 | 38080 ft | 508 kts | 323° |
| 2026-04-28 19:00 | 51.70193 | 50.97127 | 38072 ft | 505 kts | 334° |
| 2026-04-28 19:01 | 51.73614 | 50.95584 | 38095 ft | 516 kts | 342° |
| 2026-04-28 19:01 | 51.77162 | 50.94484 | 38087 ft | 518 kts | 343° |
| 2026-04-28 19:01 | 51.84066 | 50.91776 | 38089 ft | 508 kts | 336° |
| 2026-04-28 19:02 | 51.90842 | 50.88339 | 38062 ft | 508 kts | 334° |
| 2026-04-28 19:02 | 51.94074 | 50.86219 | 38058 ft | 495 kts | 327° |
| 2026-04-28 19:02 | 51.97035 | 50.83470 | 38101 ft | 488 kts | 318° |
| 2026-04-28 19:03 | 52.02124 | 50.76310 | 38073 ft | 486 kts | 309° |
| 2026-04-28 19:03 | 52.07023 | 50.68831 | 38064 ft | 486 kts | 313° |
| 2026-04-28 19:04 | 52.12275 | 50.61754 | 38066 ft | 494 kts | 314° |
| 2026-04-28 19:04 | 52.17580 | 50.54562 | 38128 ft | 498 kts | 313° |
| 2026-04-28 19:05 | 52.22836 | 50.47136 | 38096 ft | 502 kts | 313° |
| 2026-04-28 19:05 | 52.28087 | 50.39584 | 38089 ft | 504 kts | 312° |
| 2026-04-28 19:06 | 52.33356 | 50.31997 | 38079 ft | 506 kts | 313° |
| 2026-04-28 19:06 | 52.38642 | 50.24388 | 38078 ft | 506 kts | 313° |
| 2026-04-28 19:07 | 52.43914 | 50.16780 | 38068 ft | 505 kts | 312° |
| 2026-04-28 19:07 | 52.49132 | 50.09221 | 38065 ft | 503 kts | 312° |
| 2026-04-28 19:08 | 52.54300 | 50.01549 | 38053 ft | 498 kts | 309° |
| 2026-04-28 19:08 | 52.58710 | 49.93324 | 38050 ft | 478 kts | 297° |
| 2026-04-28 19:09 | 52.61597 | 49.83632 | 38057 ft | 471 kts | 287° |
| 2026-04-28 19:09 | 52.64341 | 49.73918 | 38058 ft | 471 kts | 292° |
| 2026-04-28 19:10 | 52.67606 | 49.64462 | 38063 ft | 478 kts | 294° |
| 2026-04-28 19:10 | 52.69881 | 49.57919 | 38112 ft | 481 kts | 294° |
| 2026-04-28 19:11 | 52.73078 | 49.48340 | 38048 ft | 484 kts | 292° |
| 2026-04-28 19:11 | 52.76256 | 49.38511 | 38049 ft | 487 kts | 292° |
| 2026-04-28 19:12 | 52.78762 | 49.30701 | 38037 ft | 488 kts | 292° |
| 2026-04-28 19:12 | 52.81945 | 49.20790 | 38041 ft | 488 kts | 292° |
| 2026-04-28 19:13 | 52.85121 | 49.10889 | 38049 ft | 487 kts | 292° |
| 2026-04-28 19:13 | 52.88285 | 49.00982 | 38038 ft | 486 kts | 292° |
| 2026-04-28 19:14 | 52.91367 | 48.91290 | 38026 ft | 484 kts | 292° |
| 2026-04-28 19:14 | 52.94492 | 48.81422 | 38025 ft | 483 kts | 292° |
| 2026-04-28 19:15 | 52.97577 | 48.71633 | 38010 ft | 481 kts | 292° |
| 2026-04-28 19:15 | 53.00163 | 48.63391 | 38025 ft | 482 kts | 292° |
| 2026-04-28 19:16 | 53.03773 | 48.51839 | 38008 ft | 482 kts | 292° |
| 2026-04-28 19:16 | 53.06838 | 48.41996 | 37996 ft | 483 kts | 292° |
| 2026-04-28 19:17 | 53.09932 | 48.32539 | 37974 ft | 477 kts | 297° |
| 2026-04-28 19:17 | 53.14026 | 48.23818 | 37981 ft | 483 kts | 309° |
| 2026-04-28 19:18 | 53.19064 | 48.16198 | 38016 ft | 493 kts | 313° |
| 2026-04-28 19:18 | 53.24002 | 48.08772 | 37978 ft | 498 kts | 311° |
| 2026-04-28 19:19 | 53.28951 | 48.00654 | 37959 ft | 500 kts | 308° |
| 2026-04-28 19:19 | 53.32907 | 47.93911 | 37993 ft | 503 kts | 309° |
| 2026-04-28 19:20 | 53.36143 | 47.88553 | 37959 ft | 506 kts | 310° |
| 2026-04-28 19:20 | 53.41229 | 47.80366 | 37950 ft | 508 kts | 310° |
| 2026-04-28 19:21 | 53.45873 | 47.71713 | 37946 ft | 488 kts | 294° |
| 2026-04-28 19:21 | 53.47241 | 47.66568 | 37949 ft | 480 kts | 283° |
| 2026-04-28 19:21 | 53.48005 | 47.61167 | 37955 ft | 473 kts | 273° |
| 2026-04-28 19:22 | 53.48100 | 47.52090 | 37956 ft | 467 kts | 265° |
| 2026-04-28 19:22 | 53.48188 | 47.39487 | 37945 ft | 464 kts | 270° |
| 2026-04-28 19:23 | 53.48465 | 47.28616 | 37944 ft | 469 kts | 268° |
| 2026-04-28 19:23 | 53.48611 | 47.17698 | 37944 ft | 473 kts | 268° |
| 2026-04-28 19:24 | 53.48730 | 47.06621 | 37937 ft | 476 kts | 268° |
| 2026-04-28 19:24 | 53.48853 | 46.95702 | 37930 ft | 478 kts | 268° |
| 2026-04-28 19:25 | 53.48979 | 46.84553 | 37932 ft | 478 kts | 268° |
| 2026-04-28 19:25 | 53.49093 | 46.73385 | 37942 ft | 478 kts | 268° |
| 2026-04-28 19:26 | 53.49199 | 46.62239 | 37925 ft | 476 kts | 268° |
| 2026-04-28 19:26 | 53.49292 | 46.51147 | 37925 ft | 474 kts | 268° |
| 2026-04-28 19:27 | 53.49374 | 46.40101 | 37922 ft | 472 kts | 268° |
| 2026-04-28 19:27 | 53.49447 | 46.29103 | 37923 ft | 471 kts | 268° |
| 2026-04-28 19:28 | 53.49510 | 46.18126 | 37924 ft | 470 kts | 268° |
| 2026-04-28 19:28 | 53.49562 | 46.07161 | 37946 ft | 469 kts | 268° |
| 2026-04-28 19:29 | 53.49596 | 45.98261 | 37922 ft | 470 kts | 268° |
| 2026-04-28 19:29 | 53.49635 | 45.85414 | 37923 ft | 471 kts | 268° |
| 2026-04-28 19:30 | 53.49658 | 45.74572 | 37920 ft | 472 kts | 268° |
| 2026-04-28 19:30 | 53.49671 | 45.63552 | 37933 ft | 472 kts | 267° |
| 2026-04-28 19:31 | 53.49674 | 45.52521 | 37931 ft | 472 kts | 267° |
| 2026-04-28 19:31 | 53.49666 | 45.41489 | 37926 ft | 473 kts | 267° |
| 2026-04-28 19:32 | 53.49649 | 45.30436 | 37927 ft | 473 kts | 267° |
| 2026-04-28 19:32 | 53.49623 | 45.19391 | 37925 ft | 473 kts | 267° |
| 2026-04-28 19:33 | 53.49584 | 45.08344 | 37917 ft | 473 kts | 267° |
| 2026-04-28 19:33 | 53.49528 | 44.97577 | 37925 ft | 473 kts | 267° |
| 2026-04-28 19:34 | 53.49458 | 44.86529 | 37921 ft | 473 kts | 267° |
| 2026-04-28 19:34 | 53.49380 | 44.75486 | 37922 ft | 473 kts | 266° |
| 2026-04-28 19:35 | 53.49293 | 44.64529 | 37934 ft | 472 kts | 266° |
| 2026-04-28 19:35 | 53.49196 | 44.53497 | 37933 ft | 473 kts | 267° |
| 2026-04-28 19:36 | 53.49088 | 44.42452 | 37928 ft | 473 kts | 266° |
| 2026-04-28 19:36 | 53.48971 | 44.31402 | 37929 ft | 473 kts | 266° |
| 2026-04-28 19:37 | 53.48866 | 44.22225 | 37929 ft | 473 kts | 266° |
| 2026-04-28 19:37 | 53.48706 | 44.09319 | 37935 ft | 473 kts | 266° |
| 2026-04-28 19:38 | 53.48561 | 43.98488 | 37932 ft | 473 kts | 266° |
| 2026-04-28 19:38 | 53.48405 | 43.87438 | 37957 ft | 474 kts | 266° |
| 2026-04-28 19:39 | 53.48238 | 43.76371 | 37942 ft | 475 kts | 266° |
| 2026-04-28 19:39 | 53.48063 | 43.65282 | 37940 ft | 475 kts | 266° |
| 2026-04-28 19:40 | 53.47879 | 43.54183 | 37937 ft | 476 kts | 266° |
| 2026-04-28 19:40 | 53.47685 | 43.43072 | 37933 ft | 476 kts | 266° |
| 2026-04-28 19:41 | 53.47479 | 43.31963 | 37942 ft | 476 kts | 266° |
| 2026-04-28 19:41 | 53.47264 | 43.20846 | 37942 ft | 477 kts | 266° |
| 2026-04-28 19:42 | 53.47037 | 43.09723 | 37945 ft | 477 kts | 266° |
| 2026-04-28 19:42 | 53.46840 | 43.00467 | 37961 ft | 478 kts | 266° |
| 2026-04-28 19:43 | 53.46557 | 42.87653 | 37949 ft | 478 kts | 266° |
| 2026-04-28 19:43 | 53.46300 | 42.76502 | 37939 ft | 478 kts | 266° |
| 2026-04-28 19:44 | 53.46035 | 42.65416 | 37949 ft | 479 kts | 266° |
| 2026-04-28 19:44 | 53.45809 | 42.54256 | 37946 ft | 479 kts | 268° |
| 2026-04-28 19:45 | 53.46352 | 42.43261 | 37965 ft | 468 kts | 279° |
| 2026-04-28 19:45 | 53.48432 | 42.32780 | 37962 ft | 475 kts | 288° |
| 2026-04-28 19:46 | 53.50548 | 42.22382 | 37953 ft | 471 kts | 283° |
| 2026-04-28 19:46 | 53.52179 | 42.11655 | 37945 ft | 477 kts | 281° |
| 2026-04-28 19:47 | 53.53869 | 42.00790 | 37952 ft | 483 kts | 283° |
| 2026-04-28 19:47 | 53.55674 | 41.90093 | 37972 ft | 487 kts | 284° |
| 2026-04-28 19:48 | 53.57254 | 41.80971 | 37964 ft | 490 kts | 284° |
| 2026-04-28 19:48 | 53.59151 | 41.69944 | 37927 ft | 492 kts | 283° |
| 2026-04-28 19:49 | 53.61027 | 41.58871 | 37939 ft | 492 kts | 283° |
| 2026-04-28 19:49 | 53.62887 | 41.47787 | 37947 ft | 491 kts | 283° |
| 2026-04-28 19:50 | 53.65649 | 41.31195 | 37945 ft | 489 kts | 283° |
| 2026-04-28 19:51 | 53.67472 | 41.20167 | 37940 ft | 487 kts | 283° |
| 2026-04-28 19:51 | 53.69280 | 41.09175 | 37931 ft | 486 kts | 283° |
| 2026-04-28 19:52 | 53.71194 | 40.98470 | 37932 ft | 486 kts | 287° |
| 2026-04-28 19:52 | 53.73744 | 40.87902 | 37931 ft | 486 kts | 292° |
| 2026-04-28 19:53 | 53.76642 | 40.77644 | 37927 ft | 487 kts | 293° |
| 2026-04-28 19:53 | 53.79494 | 40.67250 | 37931 ft | 487 kts | 291° |
| 2026-04-28 19:54 | 53.82198 | 40.56732 | 37931 ft | 488 kts | 291° |
| 2026-04-28 19:54 | 53.84870 | 40.46152 | 37927 ft | 489 kts | 291° |
| 2026-04-28 19:55 | 53.87104 | 40.37352 | 37938 ft | 489 kts | 291° |
| 2026-04-28 19:55 | 53.89793 | 40.26739 | 37926 ft | 490 kts | 291° |
| 2026-04-28 19:56 | 53.92475 | 40.16091 | 37928 ft | 491 kts | 291° |
| 2026-04-28 19:56 | 53.95149 | 40.05416 | 37921 ft | 492 kts | 291° |
| 2026-04-28 19:57 | 53.97769 | 39.94912 | 37924 ft | 492 kts | 291° |
| 2026-04-28 19:57 | 54.00421 | 39.84221 | 37931 ft | 492 kts | 291° |
| 2026-04-28 19:58 | 54.03075 | 39.73474 | 37923 ft | 493 kts | 291° |
| 2026-04-28 19:58 | 54.05720 | 39.62715 | 37923 ft | 493 kts | 291° |
| 2026-04-28 19:59 | 54.08356 | 39.51939 | 37924 ft | 493 kts | 290° |
| 2026-04-28 19:59 | 54.10965 | 39.41218 | 37923 ft | 493 kts | 290° |
| 2026-04-28 20:00 | 54.13598 | 39.30347 | 37921 ft | 493 kts | 290° |
| 2026-04-28 20:00 | 54.16188 | 39.19598 | 37924 ft | 493 kts | 290° |
| 2026-04-28 20:01 | 54.18783 | 39.08774 | 37914 ft | 493 kts | 290° |
| 2026-04-28 20:01 | 54.21319 | 38.98151 | 37922 ft | 492 kts | 290° |
| 2026-04-28 20:02 | 54.24060 | 38.87470 | 37906 ft | 485 kts | 296° |
| 2026-04-28 20:02 | 54.27647 | 38.77684 | 37925 ft | 489 kts | 302° |
| 2026-04-28 20:03 | 54.31538 | 38.68047 | 37925 ft | 494 kts | 302° |
| 2026-04-28 20:03 | 54.34887 | 38.59420 | 37918 ft | 497 kts | 301° |
| 2026-04-28 20:04 | 54.38514 | 38.49752 | 37922 ft | 500 kts | 301° |
| 2026-04-28 20:04 | 54.42269 | 38.39675 | 37908 ft | 502 kts | 301° |
| 2026-04-28 20:05 | 54.46045 | 38.29580 | 37907 ft | 502 kts | 301° |
| 2026-04-28 20:05 | 54.49791 | 38.19478 | 37905 ft | 500 kts | 300° |
| 2026-04-28 20:06 | 54.53058 | 38.08963 | 37915 ft | 496 kts | 294° |
| 2026-04-28 20:06 | 54.55858 | 37.98377 | 37899 ft | 495 kts | 293° |
| 2026-04-28 20:07 | 54.58733 | 37.87602 | 37903 ft | 494 kts | 294° |
| 2026-04-28 20:07 | 54.61670 | 37.76988 | 37903 ft | 493 kts | 294° |
| 2026-04-28 20:08 | 54.64636 | 37.66341 | 37897 ft | 492 kts | 294° |
| 2026-04-28 20:08 | 54.67579 | 37.55667 | 37902 ft | 492 kts | 294° |
| 2026-04-28 20:09 | 54.70481 | 37.44984 | 37878 ft | 486 kts | 292° |
| 2026-04-28 20:09 | 54.72356 | 37.33828 | 37906 ft | 486 kts | 279° |
| 2026-04-28 20:10 | 54.72780 | 37.22303 | 37926 ft | 482 kts | 268° |
| 2026-04-28 20:10 | 54.72503 | 37.10742 | 37897 ft | 478 kts | 270° |
| 2026-04-28 20:11 | 54.72773 | 36.99448 | 37911 ft | 484 kts | 274° |
| 2026-04-28 20:11 | 54.73131 | 36.87756 | 37923 ft | 489 kts | 271° |
| 2026-04-28 20:12 | 54.73243 | 36.75924 | 37912 ft | 494 kts | 270° |
| 2026-04-28 20:12 | 54.73300 | 36.64007 | 37916 ft | 496 kts | 271° |
| 2026-04-28 20:13 | 54.73408 | 36.52043 | 37931 ft | 498 kts | 271° |
| 2026-04-28 20:13 | 54.73530 | 36.40051 | 37932 ft | 498 kts | 271° |
| 2026-04-28 20:14 | 54.73629 | 36.28059 | 37934 ft | 498 kts | 271° |
| 2026-04-28 20:14 | 54.73712 | 36.16095 | 37933 ft | 497 kts | 270° |
| 2026-04-28 20:15 | 54.73766 | 36.04164 | 37930 ft | 495 kts | 270° |
| 2026-04-28 20:15 | 54.73800 | 35.92511 | 37930 ft | 493 kts | 270° |
| 2026-04-28 20:16 | 54.73826 | 35.80656 | 37933 ft | 492 kts | 270° |
| 2026-04-28 20:16 | 54.73843 | 35.68821 | 37942 ft | 491 kts | 270° |
| 2026-04-28 20:17 | 54.73849 | 35.56999 | 37948 ft | 491 kts | 270° |
| 2026-04-28 20:17 | 54.73844 | 35.45164 | 37949 ft | 492 kts | 270° |
| 2026-04-28 20:18 | 54.73827 | 35.33328 | 37958 ft | 493 kts | 270° |
| 2026-04-28 20:18 | 54.73799 | 35.21543 | 37966 ft | 493 kts | 270° |
| 2026-04-28 20:19 | 54.73657 | 35.09678 | 37969 ft | 494 kts | 268° |
| 2026-04-28 20:19 | 54.73424 | 34.98021 | 37974 ft | 494 kts | 268° |
| 2026-04-28 20:20 | 54.73181 | 34.86131 | 37964 ft | 495 kts | 268° |
| 2026-04-28 20:20 | 54.72948 | 34.74233 | 37977 ft | 495 kts | 268° |
| 2026-04-28 20:21 | 54.72713 | 34.62329 | 37994 ft | 495 kts | 268° |
| 2026-04-28 20:21 | 54.72465 | 34.50415 | 37995 ft | 496 kts | 268° |
| 2026-04-28 20:22 | 54.72202 | 34.38502 | 38005 ft | 496 kts | 268° |
| 2026-04-28 20:22 | 54.71927 | 34.26571 | 38011 ft | 496 kts | 268° |
| 2026-04-28 20:23 | 54.71640 | 34.14647 | 38011 ft | 497 kts | 268° |
| 2026-04-28 20:23 | 54.71342 | 34.02714 | 38011 ft | 497 kts | 268° |
| 2026-04-28 20:24 | 54.71041 | 33.91023 | 38020 ft | 497 kts | 268° |
| 2026-04-28 20:24 | 54.70584 | 33.79123 | 38022 ft | 496 kts | 265° |
| 2026-04-28 20:25 | 54.69823 | 33.67279 | 38020 ft | 496 kts | 263° |
| 2026-04-28 20:25 | 54.68987 | 33.55433 | 38030 ft | 497 kts | 264° |
| 2026-04-28 20:26 | 54.68174 | 33.43579 | 38027 ft | 497 kts | 264° |
| 2026-04-28 20:26 | 54.67382 | 33.31718 | 38038 ft | 497 kts | 264° |
| 2026-04-28 20:27 | 54.66587 | 33.19858 | 38038 ft | 497 kts | 264° |
| 2026-04-28 20:27 | 54.65784 | 33.08092 | 38038 ft | 497 kts | 264° |
| 2026-04-28 20:28 | 54.64976 | 32.96475 | 38047 ft | 497 kts | 264° |
| 2026-04-28 20:28 | 54.64139 | 32.84633 | 38046 ft | 497 kts | 263° |
| 2026-04-28 20:29 | 54.63291 | 32.72791 | 38049 ft | 497 kts | 263° |
| 2026-04-28 20:29 | 54.62432 | 32.60960 | 38055 ft | 497 kts | 263° |
| 2026-04-28 20:30 | 54.61562 | 32.49124 | 38051 ft | 497 kts | 263° |
| 2026-04-28 20:30 | 54.60679 | 32.37297 | 38060 ft | 497 kts | 263° |
| 2026-04-28 20:31 | 54.59785 | 32.25476 | 38054 ft | 497 kts | 263° |
| 2026-04-28 20:31 | 54.58879 | 32.13651 | 38059 ft | 497 kts | 263° |
| 2026-04-28 20:32 | 54.57963 | 32.01843 | 38058 ft | 497 kts | 263° |
| 2026-04-28 20:32 | 54.57052 | 31.90259 | 38064 ft | 497 kts | 263° |
| 2026-04-28 20:33 | 54.56111 | 31.78444 | 38062 ft | 497 kts | 263° |
| 2026-04-28 20:33 | 54.55160 | 31.66641 | 38058 ft | 498 kts | 263° |
| 2026-04-28 20:34 | 54.54203 | 31.54914 | 38064 ft | 498 kts | 263° |
| 2026-04-28 20:34 | 54.53221 | 31.43031 | 38068 ft | 498 kts | 263° |
| 2026-04-28 20:35 | 54.52239 | 31.31297 | 38074 ft | 499 kts | 263° |
| 2026-04-28 20:35 | 54.51241 | 31.19490 | 38074 ft | 499 kts | 262° |
| 2026-04-28 20:36 | 54.50230 | 31.07679 | 38073 ft | 499 kts | 262° |
| 2026-04-28 20:36 | 54.49185 | 30.96030 | 38077 ft | 499 kts | 262° |
| 2026-04-28 20:37 | 54.48099 | 30.84321 | 38073 ft | 499 kts | 262° |
| 2026-04-28 20:37 | 54.46998 | 30.72535 | 38082 ft | 499 kts | 262° |
| 2026-04-28 20:38 | 54.45894 | 30.60748 | 38083 ft | 499 kts | 262° |
| 2026-04-28 20:38 | 54.44969 | 30.50962 | 38081 ft | 499 kts | 262° |
| 2026-04-28 20:39 | 54.43845 | 30.39187 | 38085 ft | 499 kts | 262° |
| 2026-04-28 20:39 | 54.42711 | 30.27432 | 38088 ft | 499 kts | 262° |
| 2026-04-28 20:40 | 54.41557 | 30.15683 | 38088 ft | 499 kts | 261° |
| 2026-04-28 20:40 | 54.40387 | 30.03947 | 38096 ft | 499 kts | 261° |
| 2026-04-28 20:41 | 54.39233 | 29.92430 | 38091 ft | 499 kts | 261° |
| 2026-04-28 20:41 | 54.38042 | 29.80686 | 38102 ft | 500 kts | 261° |
| 2026-04-28 20:42 | 54.36841 | 29.68951 | 38099 ft | 500 kts | 261° |
| 2026-04-28 20:42 | 54.35628 | 29.57216 | 38107 ft | 500 kts | 261° |
| 2026-04-28 20:43 | 54.34391 | 29.45483 | 38101 ft | 500 kts | 261° |
| 2026-04-28 20:43 | 54.33143 | 29.33742 | 38110 ft | 501 kts | 261° |
| 2026-04-28 20:44 | 54.31896 | 29.21983 | 38102 ft | 502 kts | 261° |
| 2026-04-28 20:44 | 54.30643 | 29.10233 | 38112 ft | 502 kts | 261° |
| 2026-04-28 20:45 | 54.29400 | 28.98715 | 38123 ft | 502 kts | 261° |
| 2026-04-28 20:45 | 54.28117 | 28.86971 | 38118 ft | 502 kts | 261° |
| 2026-04-28 20:46 | 54.26823 | 28.75231 | 38123 ft | 502 kts | 261° |
| 2026-04-28 20:46 | 54.25520 | 28.63508 | 38131 ft | 502 kts | 261° |
| 2026-04-28 20:47 | 54.24206 | 28.51774 | 38130 ft | 502 kts | 261° |
| 2026-04-28 20:47 | 54.22880 | 28.40051 | 38126 ft | 502 kts | 260° |
| 2026-04-28 20:48 | 54.21542 | 28.28340 | 38136 ft | 502 kts | 260° |
| 2026-04-28 20:48 | 54.20194 | 28.16645 | 38151 ft | 502 kts | 260° |
| 2026-04-28 20:49 | 54.18845 | 28.05039 | 38134 ft | 502 kts | 260° |
| 2026-04-28 20:49 | 54.17500 | 27.93579 | 38154 ft | 502 kts | 260° |
| 2026-04-28 20:50 | 54.16119 | 27.81905 | 38150 ft | 502 kts | 260° |
| 2026-04-28 20:50 | 54.14725 | 27.70227 | 38161 ft | 502 kts | 260° |
| 2026-04-28 20:51 | 54.13321 | 27.58566 | 38143 ft | 502 kts | 260° |
| 2026-04-28 20:51 | 54.11908 | 27.46928 | 38154 ft | 501 kts | 260° |
| 2026-04-28 20:52 | 54.10485 | 27.35300 | 38152 ft | 501 kts | 260° |
| 2026-04-28 20:52 | 54.09042 | 27.23680 | 38163 ft | 501 kts | 259° |
| 2026-04-28 20:53 | 54.06846 | 27.06274 | 38169 ft | 501 kts | 259° |
| 2026-04-28 20:53 | 54.05399 | 26.94890 | 38158 ft | 502 kts | 259° |
| 2026-04-28 20:54 | 54.03914 | 26.83284 | 38154 ft | 501 kts | 259° |
| 2026-04-28 20:54 | 54.02420 | 26.71704 | 38174 ft | 501 kts | 259° |
| 2026-04-28 20:55 | 54.00920 | 26.60129 | 38175 ft | 501 kts | 259° |
| 2026-04-28 20:55 | 53.99422 | 26.48638 | 38175 ft | 501 kts | 259° |
| 2026-04-28 20:56 | 53.97904 | 26.37081 | 38182 ft | 501 kts | 259° |
| 2026-04-28 20:56 | 53.96371 | 26.25519 | 38183 ft | 502 kts | 259° |
| 2026-04-28 20:57 | 53.94828 | 26.13968 | 38176 ft | 502 kts | 259° |
| 2026-04-28 20:57 | 53.93274 | 26.02438 | 38178 ft | 501 kts | 259° |
| 2026-04-28 20:58 | 53.91740 | 25.91136 | 38187 ft | 501 kts | 259° |
| 2026-04-28 20:58 | 53.90165 | 25.79613 | 38197 ft | 502 kts | 259° |
| 2026-04-28 20:59 | 53.88577 | 25.68086 | 38196 ft | 502 kts | 259° |
| 2026-04-28 20:59 | 53.86976 | 25.56555 | 38197 ft | 503 kts | 259° |
| 2026-04-28 21:00 | 53.85364 | 25.45037 | 38206 ft | 503 kts | 259° |
| 2026-04-28 21:00 | 53.83741 | 25.33532 | 38192 ft | 502 kts | 259° |
| 2026-04-28 21:01 | 53.82109 | 25.22039 | 38217 ft | 502 kts | 259° |
| 2026-04-28 21:01 | 53.80469 | 25.10560 | 38210 ft | 502 kts | 259° |
| 2026-04-28 21:02 | 53.78582 | 24.99529 | 38217 ft | 499 kts | 255° |
| 2026-04-28 21:02 | 53.76452 | 24.88334 | 38225 ft | 501 kts | 255° |
| 2026-04-28 21:03 | 53.74367 | 24.77145 | 38220 ft | 503 kts | 255° |
| 2026-04-28 21:03 | 53.72256 | 24.65767 | 38204 ft | 505 kts | 255° |
| 2026-04-28 21:04 | 53.70152 | 24.54545 | 38228 ft | 505 kts | 255° |
| 2026-04-28 21:04 | 53.68003 | 24.43184 | 38228 ft | 505 kts | 255° |
| 2026-04-28 21:05 | 53.65875 | 24.32008 | 38230 ft | 504 kts | 255° |
| 2026-04-28 21:05 | 53.63728 | 24.20783 | 38230 ft | 503 kts | 255° |
| 2026-04-28 21:06 | 53.62109 | 24.09496 | 38248 ft | 489 kts | 273° |
| 2026-04-28 21:06 | 53.62588 | 24.03884 | 38253 ft | 483 kts | 289° |
| 2026-04-28 21:06 | 53.63785 | 23.98879 | 38246 ft | 480 kts | 300° |
| 2026-04-28 21:07 | 53.67729 | 23.89881 | 38257 ft | 478 kts | 311° |
| 2026-04-28 21:07 | 53.71810 | 23.81217 | 38257 ft | 473 kts | 307° |
| 2026-04-28 21:08 | 53.75673 | 23.72096 | 38264 ft | 480 kts | 307° |
| 2026-04-28 21:08 | 53.79637 | 23.62937 | 38265 ft | 485 kts | 308° |
| 2026-04-28 21:09 | 53.83625 | 23.53741 | 38243 ft | 482 kts | 305° |
| 2026-04-28 21:09 | 53.87233 | 23.44099 | 38278 ft | 486 kts | 303° |
| 2026-04-28 21:10 | 53.90782 | 23.34313 | 38278 ft | 488 kts | 303° |
| 2026-04-28 21:10 | 53.94377 | 23.24522 | 38278 ft | 489 kts | 303° |
| 2026-04-28 21:11 | 53.97986 | 23.14724 | 38264 ft | 488 kts | 303° |
| 2026-04-28 21:11 | 54.01559 | 23.04964 | 38284 ft | 485 kts | 303° |
| 2026-04-28 21:12 | 54.04885 | 22.95314 | 38281 ft | 479 kts | 294° |
| 2026-04-28 21:12 | 54.05824 | 22.89858 | 38303 ft | 483 kts | 282° |
| 2026-04-28 21:12 | 54.06143 | 22.84154 | 38292 ft | 488 kts | 273° |
| 2026-04-28 21:13 | 54.05839 | 22.78390 | 38297 ft | 491 kts | 262° |
| 2026-04-28 21:13 | 54.05108 | 22.72696 | 38295 ft | 494 kts | 259° |
| 2026-04-28 21:13 | 54.03469 | 22.61368 | 38302 ft | 489 kts | 261° |
| 2026-04-28 21:14 | 54.02162 | 22.49956 | 38300 ft | 495 kts | 263° |
| 2026-04-28 21:14 | 54.00923 | 22.38367 | 38319 ft | 501 kts | 263° |
| 2026-04-28 21:15 | 53.99579 | 22.26693 | 38323 ft | 505 kts | 262° |
| 2026-04-28 21:15 | 53.98160 | 22.14978 | 38326 ft | 507 kts | 261° |
| 2026-04-28 21:16 | 53.96717 | 22.03245 | 38308 ft | 507 kts | 262° |
| 2026-04-28 21:16 | 53.95301 | 21.91759 | 38326 ft | 506 kts | 262° |
| 2026-04-28 21:17 | 53.93867 | 21.80167 | 38323 ft | 504 kts | 262° |
| 2026-04-28 21:17 | 53.92419 | 21.68553 | 38333 ft | 502 kts | 261° |
| 2026-04-28 21:18 | 53.90963 | 21.56979 | 38333 ft | 501 kts | 261° |
| 2026-04-28 21:18 | 53.89499 | 21.45449 | 38335 ft | 500 kts | 261° |
| 2026-04-28 21:19 | 53.88026 | 21.33941 | 38334 ft | 499 kts | 261° |
| 2026-04-28 21:19 | 53.86549 | 21.22472 | 38320 ft | 498 kts | 261° |
| 2026-04-28 21:20 | 53.85060 | 21.11030 | 38337 ft | 497 kts | 261° |
| 2026-04-28 21:20 | 53.83577 | 20.99758 | 38346 ft | 497 kts | 261° |
| 2026-04-28 21:21 | 53.82069 | 20.88390 | 38341 ft | 498 kts | 261° |
| 2026-04-28 21:21 | 53.80544 | 20.76964 | 38337 ft | 498 kts | 261° |
| 2026-04-28 21:22 | 53.79017 | 20.65604 | 38357 ft | 499 kts | 261° |
| 2026-04-28 21:22 | 53.77721 | 20.56026 | 38345 ft | 499 kts | 261° |
| 2026-04-28 21:23 | 53.75905 | 20.42738 | 38350 ft | 499 kts | 261° |
| 2026-04-28 21:23 | 53.74328 | 20.31329 | 38359 ft | 498 kts | 261° |
| 2026-04-28 21:24 | 53.72745 | 20.19951 | 38358 ft | 498 kts | 261° |
| 2026-04-28 21:24 | 53.71153 | 20.08591 | 38365 ft | 497 kts | 261° |
| 2026-04-28 21:25 | 53.69586 | 19.97452 | 38369 ft | 497 kts | 261° |
| 2026-04-28 21:25 | 53.67976 | 19.86108 | 38376 ft | 498 kts | 261° |
| 2026-04-28 21:26 | 53.66355 | 19.74759 | 38374 ft | 498 kts | 261° |
| 2026-04-28 21:26 | 53.64726 | 19.63413 | 38380 ft | 498 kts | 261° |
| 2026-04-28 21:27 | 53.63365 | 19.53997 | 38351 ft | 497 kts | 261° |
| 2026-04-28 21:27 | 53.61720 | 19.42694 | 38385 ft | 496 kts | 261° |
| 2026-04-28 21:28 | 53.60070 | 19.31422 | 38377 ft | 496 kts | 261° |
| 2026-04-28 21:28 | 53.58409 | 19.20158 | 38391 ft | 496 kts | 261° |
| 2026-04-28 21:29 | 53.56737 | 19.08905 | 38392 ft | 496 kts | 260° |
| 2026-04-28 21:29 | 53.55089 | 18.97883 | 38388 ft | 496 kts | 260° |
| 2026-04-28 21:30 | 53.53407 | 18.86661 | 38401 ft | 491 kts | 262° |
| 2026-04-28 21:30 | 53.52768 | 18.81098 | 38387 ft | 478 kts | 267° |
| 2026-04-28 21:30 | 53.52515 | 18.75536 | 38379 ft | 478 kts | 273° |
| 2026-04-28 21:31 | 53.52997 | 18.64529 | 38412 ft | 471 kts | 283° |
| 2026-04-28 21:31 | 53.54051 | 18.53592 | 38409 ft | 478 kts | 282° |
| 2026-04-28 21:32 | 53.54902 | 18.42416 | 38418 ft | 485 kts | 280° |
| 2026-04-28 21:32 | 53.55483 | 18.31150 | 38414 ft | 488 kts | 278° |
| 2026-04-28 21:33 | 53.56119 | 18.19754 | 38412 ft | 490 kts | 280° |
| 2026-04-28 21:33 | 53.56883 | 18.08357 | 38411 ft | 490 kts | 280° |
| 2026-04-28 21:34 | 53.57633 | 17.97178 | 38406 ft | 489 kts | 280° |
| 2026-04-28 21:34 | 53.58366 | 17.85831 | 38388 ft | 486 kts | 280° |
| 2026-04-28 21:35 | 53.59087 | 17.74537 | 38416 ft | 484 kts | 280° |
| 2026-04-28 21:35 | 53.59799 | 17.63276 | 38415 ft | 484 kts | 280° |
| 2026-04-28 21:36 | 53.60500 | 17.52017 | 38416 ft | 483 kts | 280° |
| 2026-04-28 21:36 | 53.61189 | 17.40782 | 38418 ft | 483 kts | 280° |
| 2026-04-28 21:37 | 53.61867 | 17.29534 | 38418 ft | 482 kts | 280° |
| 2026-04-28 21:37 | 53.62535 | 17.18285 | 38426 ft | 484 kts | 279° |
| 2026-04-28 21:38 | 53.63195 | 17.06989 | 38422 ft | 485 kts | 279° |
| 2026-04-28 21:38 | 53.63835 | 16.95880 | 38418 ft | 486 kts | 279° |
| 2026-04-28 21:39 | 53.64469 | 16.84524 | 38392 ft | 487 kts | 279° |
| 2026-04-28 21:39 | 53.65083 | 16.73143 | 38421 ft | 488 kts | 279° |
| 2026-04-28 21:40 | 53.65689 | 16.61741 | 38423 ft | 489 kts | 279° |
| 2026-04-28 21:40 | 53.66288 | 16.50329 | 38422 ft | 489 kts | 279° |
| 2026-04-28 21:41 | 53.66878 | 16.38890 | 38415 ft | 489 kts | 279° |
| 2026-04-28 21:41 | 53.67455 | 16.27460 | 38400 ft | 489 kts | 279° |
| 2026-04-28 21:42 | 53.68022 | 16.16011 | 38413 ft | 490 kts | 279° |
| 2026-04-28 21:42 | 53.68580 | 16.04542 | 38428 ft | 491 kts | 279° |
| 2026-04-28 21:43 | 53.69119 | 15.93265 | 38426 ft | 492 kts | 279° |
| 2026-04-28 21:43 | 53.69659 | 15.81742 | 38404 ft | 492 kts | 278° |
| 2026-04-28 21:44 | 53.70187 | 15.70307 | 38419 ft | 492 kts | 279° |
| 2026-04-28 21:44 | 53.70711 | 15.58791 | 38420 ft | 492 kts | 279° |
| 2026-04-28 21:45 | 53.71226 | 15.47263 | 38418 ft | 493 kts | 278° |
| 2026-04-28 21:45 | 53.71729 | 15.35726 | 38418 ft | 493 kts | 278° |
| 2026-04-28 21:46 | 53.72220 | 15.24180 | 38422 ft | 493 kts | 278° |
| 2026-04-28 21:46 | 53.72702 | 15.12624 | 38417 ft | 493 kts | 278° |
| 2026-04-28 21:47 | 53.73172 | 15.01083 | 38417 ft | 493 kts | 278° |
| 2026-04-28 21:47 | 53.73622 | 14.89759 | 38405 ft | 493 kts | 278° |
| 2026-04-28 21:48 | 53.74069 | 14.78213 | 38406 ft | 493 kts | 278° |
| 2026-04-28 21:48 | 53.74505 | 14.66672 | 38395 ft | 492 kts | 278° |
| 2026-04-28 21:49 | 53.74929 | 14.55156 | 38418 ft | 491 kts | 278° |
| 2026-04-28 21:49 | 53.75343 | 14.43638 | 38407 ft | 491 kts | 278° |
| 2026-04-28 21:50 | 53.75746 | 14.32130 | 38405 ft | 491 kts | 278° |
| 2026-04-28 21:50 | 53.76062 | 14.20614 | 38365 ft | 491 kts | 276° |
| 2026-04-28 21:51 | 53.76094 | 14.09060 | 38395 ft | 492 kts | 275° |
| 2026-04-28 21:51 | 53.76102 | 13.97724 | 38418 ft | 492 kts | 275° |
| 2026-04-28 21:52 | 53.76166 | 13.86235 | 38412 ft | 492 kts | 275° |
| 2026-04-28 21:52 | 53.76215 | 13.74669 | 38413 ft | 493 kts | 275° |
| 2026-04-28 21:53 | 53.76235 | 13.63095 | 38386 ft | 492 kts | 275° |
| 2026-04-28 21:53 | 53.76302 | 13.51537 | 38412 ft | 492 kts | 274° |
| 2026-04-28 21:54 | 53.76142 | 13.39977 | 38399 ft | 493 kts | 273° |
| 2026-04-28 21:54 | 53.75975 | 13.28378 | 38387 ft | 494 kts | 273° |
| 2026-04-28 21:55 | 53.75833 | 13.16762 | 38394 ft | 495 kts | 273° |
| 2026-04-28 21:55 | 53.75686 | 13.05130 | 38401 ft | 495 kts | 273° |
| 2026-04-28 21:56 | 53.75525 | 12.93702 | 38396 ft | 496 kts | 273° |
| 2026-04-28 21:56 | 53.75349 | 12.82037 | 38405 ft | 497 kts | 272° |
| 2026-04-28 21:57 | 53.75191 | 12.70366 | 38381 ft | 497 kts | 273° |
| 2026-04-28 21:57 | 53.75059 | 12.58694 | 38366 ft | 497 kts | 273° |
| 2026-04-28 21:58 | 53.74903 | 12.47021 | 38390 ft | 497 kts | 272° |
| 2026-04-28 21:58 | 53.74665 | 12.35331 | 38396 ft | 499 kts | 271° |
| 2026-04-28 21:59 | 53.74369 | 12.23620 | 38395 ft | 500 kts | 271° |
| 2026-04-28 22:00 | 53.73955 | 12.06001 | 38344 ft | 501 kts | 272° |
| 2026-04-28 22:00 | 53.73734 | 11.94483 | 38383 ft | 501 kts | 272° |
| 2026-04-28 22:01 | 53.73493 | 11.82783 | 38390 ft | 502 kts | 271° |
| 2026-04-28 22:01 | 53.73214 | 11.70978 | 38391 ft | 504 kts | 271° |
| 2026-04-28 22:02 | 53.72916 | 11.59145 | 38379 ft | 505 kts | 271° |
| 2026-04-28 22:02 | 53.72614 | 11.47317 | 38364 ft | 504 kts | 271° |
| 2026-04-28 22:03 | 53.72299 | 11.35486 | 38392 ft | 504 kts | 271° |
| 2026-04-28 22:03 | 53.71971 | 11.23649 | 38393 ft | 505 kts | 271° |
| 2026-04-28 22:04 | 53.71633 | 11.11817 | 38394 ft | 504 kts | 271° |
| 2026-04-28 22:04 | 53.71285 | 10.99995 | 38396 ft | 504 kts | 271° |
| 2026-04-28 22:05 | 53.70931 | 10.88416 | 38404 ft | 503 kts | 271° |
| 2026-04-28 22:05 | 53.70552 | 10.76611 | 38411 ft | 504 kts | 270° |
| 2026-04-28 22:06 | 53.70159 | 10.64795 | 38400 ft | 504 kts | 270° |
| 2026-04-28 22:06 | 53.69759 | 10.52976 | 38402 ft | 505 kts | 270° |
| 2026-04-28 22:07 | 53.69349 | 10.41149 | 38371 ft | 505 kts | 270° |
| 2026-04-28 22:07 | 53.68919 | 10.29327 | 38393 ft | 502 kts | 269° |
| 2026-04-28 22:08 | 53.67667 | 10.17703 | 38413 ft | 507 kts | 258° |
| 2026-04-28 22:08 | 53.65207 | 10.06606 | 38413 ft | 510 kts | 249° |
| 2026-04-28 22:09 | 53.62261 | 9.95897 | 38412 ft | 517 kts | 249° |
| 2026-04-28 22:09 | 53.59391 | 9.84741 | 38404 ft | 521 kts | 251° |
| 2026-04-28 22:10 | 53.56731 | 9.73399 | 38406 ft | 522 kts | 251° |
| 2026-04-28 22:10 | 53.53958 | 9.62115 | 38402 ft | 522 kts | 249° |
| 2026-04-28 22:11 | 53.51103 | 9.51014 | 38399 ft | 520 kts | 249° |
| 2026-04-28 22:11 | 53.48262 | 9.39880 | 38392 ft | 517 kts | 250° |
| 2026-04-28 22:12 | 53.45424 | 9.28809 | 38370 ft | 515 kts | 249° |
| 2026-04-28 22:12 | 53.42583 | 9.17799 | 38397 ft | 514 kts | 249° |
| 2026-04-28 22:13 | 53.39737 | 9.06818 | 38388 ft | 514 kts | 249° |
| 2026-04-28 22:13 | 53.36941 | 8.96066 | 38390 ft | 513 kts | 249° |
| 2026-04-28 22:14 | 53.34118 | 8.85106 | 38389 ft | 512 kts | 251° |
| 2026-04-28 22:14 | 53.31651 | 8.73961 | 38368 ft | 511 kts | 253° |
| 2026-04-28 22:15 | 53.29226 | 8.62782 | 38402 ft | 512 kts | 252° |
| 2026-04-28 22:15 | 53.27184 | 8.53487 | 38400 ft | 513 kts | 252° |
| 2026-04-28 22:16 | 53.24809 | 8.42249 | 38382 ft | 513 kts | 255° |
| 2026-04-28 22:16 | 53.22747 | 8.30846 | 38392 ft | 513 kts | 256° |
| 2026-04-28 22:17 | 53.20673 | 8.19445 | 38364 ft | 514 kts | 255° |
| 2026-04-28 22:17 | 53.18495 | 8.08072 | 38398 ft | 515 kts | 255° |
| 2026-04-28 22:18 | 53.16378 | 7.96906 | 38387 ft | 516 kts | 255° |
| 2026-04-28 22:18 | 53.14224 | 7.85496 | 38385 ft | 516 kts | 255° |
| 2026-04-28 22:19 | 53.12055 | 7.74105 | 38385 ft | 516 kts | 255° |
| 2026-04-28 22:19 | 53.09870 | 7.62720 | 38357 ft | 516 kts | 255° |
| 2026-04-28 22:20 | 53.07678 | 7.51369 | 38382 ft | 516 kts | 255° |
| 2026-04-28 22:20 | 53.05469 | 7.39982 | 38372 ft | 517 kts | 255° |
| 2026-04-28 22:21 | 53.03254 | 7.28619 | 38377 ft | 517 kts | 254° |
| 2026-04-28 22:21 | 53.01023 | 7.17276 | 38368 ft | 516 kts | 253° |
| 2026-04-28 22:22 | 52.98735 | 7.06017 | 38356 ft | 515 kts | 253° |
| 2026-04-28 22:22 | 52.96460 | 6.94994 | 38362 ft | 515 kts | 253° |
| 2026-04-28 22:23 | 52.94155 | 6.83837 | 38365 ft | 515 kts | 253° |
| 2026-04-28 22:23 | 52.91832 | 6.72607 | 38360 ft | 515 kts | 253° |
| 2026-04-28 22:24 | 52.89501 | 6.61396 | 38358 ft | 515 kts | 253° |
| 2026-04-28 22:24 | 52.87154 | 6.50174 | 38331 ft | 516 kts | 252° |
| 2026-04-28 22:25 | 52.84796 | 6.38962 | 38334 ft | 517 kts | 252° |
| 2026-04-28 22:25 | 52.82426 | 6.27739 | 38352 ft | 517 kts | 252° |
| 2026-04-28 22:26 | 52.80065 | 6.16528 | 38345 ft | 516 kts | 252° |
| 2026-04-28 22:26 | 52.77699 | 6.05339 | 38336 ft | 516 kts | 252° |
| 2026-04-28 22:27 | 52.75351 | 5.94378 | 38334 ft | 515 kts | 251° |
| 2026-04-28 22:27 | 52.72656 | 5.83428 | 38337 ft | 512 kts | 244° |
| 2026-04-28 22:28 | 52.68586 | 5.73924 | 38353 ft | 512 kts | 225° |
| 2026-04-28 22:28 | 52.63508 | 5.65765 | 38342 ft | 506 kts | 226° |
| 2026-04-28 22:29 | 52.58898 | 5.56936 | 38339 ft | 513 kts | 231° |
| 2026-04-28 22:29 | 52.54321 | 5.47845 | 38313 ft | 519 kts | 229° |
| 2026-04-28 22:30 | 52.49538 | 5.38920 | 38322 ft | 522 kts | 228° |
| 2026-04-28 22:30 | 52.44722 | 5.30029 | 38325 ft | 523 kts | 229° |
| 2026-04-28 22:31 | 52.39902 | 5.21050 | 38343 ft | 522 kts | 229° |
| 2026-04-28 22:31 | 52.35294 | 5.12111 | 38292 ft | 504 kts | 234° |
| 2026-04-28 22:32 | 52.31979 | 5.02128 | 38320 ft | 503 kts | 251° |
| 2026-04-28 22:32 | 52.29945 | 4.91345 | 38319 ft | 510 kts | 255° |
| 2026-04-28 22:33 | 52.27798 | 4.80408 | 38323 ft | 509 kts | 250° |
| 2026-04-28 22:33 | 52.25281 | 4.69511 | 38330 ft | 516 kts | 251° |
| 2026-04-28 22:34 | 52.22927 | 4.58385 | 38298 ft | 520 kts | 252° |
| 2026-04-28 22:34 | 52.20606 | 4.47184 | 38302 ft | 522 kts | 252° |
| 2026-04-28 22:35 | 52.18253 | 4.35996 | 38295 ft | 522 kts | 252° |
| 2026-04-28 22:35 | 52.15878 | 4.24825 | 38303 ft | 521 kts | 252° |
| 2026-04-28 22:36 | 52.13505 | 4.13723 | 38301 ft | 518 kts | 252° |
| 2026-04-28 22:36 | 52.11135 | 4.02675 | 38306 ft | 516 kts | 252° |
| 2026-04-28 22:37 | 52.08812 | 3.91901 | 38297 ft | 515 kts | 251° |
| 2026-04-28 22:37 | 52.06434 | 3.80931 | 38303 ft | 514 kts | 251° |
| 2026-04-28 22:38 | 52.04050 | 3.69963 | 38288 ft | 515 kts | 251° |
| 2026-04-28 22:38 | 52.01659 | 3.58993 | 38277 ft | 516 kts | 251° |
| 2026-04-28 22:39 | 51.99251 | 3.48002 | 38289 ft | 518 kts | 251° |
| 2026-04-28 22:39 | 51.96877 | 3.36960 | 38267 ft | 519 kts | 251° |
| 2026-04-28 22:40 | 51.94514 | 3.25873 | 38273 ft | 521 kts | 251° |